createdAt,value
2018-12-15T00:00:26.171Z,34.80
2018-12-15T00:01:31.555Z,38.80
2018-12-15T00:02:37.256Z,42.62
2018-12-15T00:03:42.645Z,39.08
2018-12-15T00:04:48.035Z,33.98
2018-12-15T00:05:53.434Z,32.30
2018-12-15T00:06:59.011Z,30.97
2018-12-15T00:08:04.483Z,39.30
2018-12-15T00:09:09.886Z,37.63
2018-12-15T00:10:15.271Z,36.13
2018-12-15T00:11:20.719Z,33.50
2018-12-15T00:12:26.183Z,33.45
2018-12-15T00:13:31.604Z,36.83
2018-12-15T00:14:37.131Z,33.23
2018-12-15T00:15:42.607Z,34.40
2018-12-15T00:16:47.995Z,29.07
2018-12-15T00:17:53.493Z,38.70
2018-12-15T00:18:58.982Z,34.88
2018-12-15T00:20:04.633Z,34.83
2018-12-15T00:21:10.184Z,39.50
2018-12-15T00:22:15.630Z,35.15
2018-12-15T00:23:21.147Z,29.85
2018-12-15T00:24:26.584Z,38.75
2018-12-15T00:25:32.043Z,31.30
2018-12-15T00:26:37.482Z,34.30
2018-12-15T00:27:42.873Z,37.50
2018-12-15T00:28:48.337Z,32.03
2018-12-15T00:29:53.732Z,30.37
2018-12-15T00:30:59.275Z,40.55
2018-12-15T00:32:04.742Z,38.75
2018-12-15T00:33:10.273Z,39.58
2018-12-15T00:34:15.719Z,33.33
2018-12-15T00:35:21.130Z,31.20
2018-12-15T00:36:26.699Z,36.87
2018-12-15T00:37:32.119Z,34.65
2018-12-15T00:38:37.518Z,30.65
2018-12-15T00:39:43.031Z,32.83
2018-12-15T00:40:48.448Z,33.48
2018-12-15T00:41:53.830Z,34.15
2018-12-15T00:42:59.261Z,34.15
2018-12-15T00:44:04.699Z,37.98
2018-12-15T00:45:10.303Z,34.63
2018-12-15T00:46:15.686Z,36.77
2018-12-15T00:47:21.328Z,37.35
2018-12-15T00:48:26.772Z,39.03
2018-12-15T00:49:32.154Z,32.17
2018-12-15T00:50:37.679Z,39.80
2018-12-15T00:51:43.154Z,45.73
2018-12-15T00:52:48.575Z,29.95
2018-12-15T00:53:53.959Z,35.70
2018-12-15T00:54:59.475Z,38.58
2018-12-15T00:56:05.022Z,40.40
2018-12-15T00:57:10.460Z,35.78
2018-12-15T00:58:16.001Z,35.28
2018-12-15T00:59:21.398Z,37.28
2018-12-15T01:00:26.873Z,32.10
2018-12-15T01:01:32.555Z,34.03
2018-12-15T01:02:37.970Z,36.33
2018-12-15T01:03:43.384Z,35.05
2018-12-15T01:04:48.881Z,36.45
2018-12-15T01:05:54.292Z,32.53
2018-12-15T01:06:59.739Z,34.20
2018-12-15T01:08:05.165Z,35.27
2018-12-15T01:09:10.619Z,35.75
2018-12-15T01:10:16.036Z,38.23
2018-12-15T01:11:21.533Z,37.53
2018-12-15T01:12:26.912Z,34.78
2018-12-15T01:13:32.335Z,36.80
2018-12-15T01:14:37.770Z,34.08
2018-12-15T01:15:46.150Z,38.28
2018-12-15T01:16:51.584Z,35.60
2018-12-15T01:17:57.020Z,36.80
2018-12-15T01:19:02.428Z,39.70
2018-12-15T01:20:08.177Z,41.58
2018-12-15T01:21:13.632Z,36.28
2018-12-15T01:22:19.159Z,38.02
2018-12-15T01:23:24.655Z,34.35
2018-12-15T01:24:30.092Z,36.88
2018-12-15T01:25:35.476Z,35.80
2018-12-15T01:26:40.903Z,36.88
2018-12-15T01:27:46.333Z,37.40
2018-12-15T01:28:51.892Z,37.08
2018-12-15T01:29:57.274Z,38.88
2018-12-15T01:31:02.707Z,40.35
2018-12-15T01:32:08.156Z,39.53
2018-12-15T01:33:13.554Z,38.10
2018-12-15T01:34:19.033Z,31.27
2018-12-15T01:35:24.410Z,39.70
2018-12-15T01:36:29.878Z,33.60
2018-12-15T01:37:35.283Z,35.10
2018-12-15T01:38:40.776Z,36.25
2018-12-15T01:39:46.193Z,30.25
2018-12-15T01:40:51.694Z,30.80
2018-12-15T01:41:57.152Z,38.98
2018-12-15T01:43:02.575Z,38.15
2018-12-15T01:44:07.982Z,36.98
2018-12-15T01:45:13.528Z,38.63
2018-12-15T01:46:19.107Z,36.50
2018-12-15T01:47:27.077Z,38.75
2018-12-15T01:48:31.887Z,36.73
2018-12-15T01:49:37.361Z,33.63
2018-12-15T01:50:42.774Z,32.80
2018-12-15T01:51:48.247Z,40.17
2018-12-15T01:52:53.647Z,32.55
2018-12-15T01:53:59.099Z,44.33
2018-12-15T01:55:04.821Z,35.85
2018-12-15T01:56:10.302Z,37.83
2018-12-15T01:57:15.718Z,35.50
2018-12-15T01:58:21.143Z,33.45
2018-12-15T01:59:26.536Z,34.65
2018-12-15T02:00:32.039Z,38.05
2018-12-15T02:01:37.453Z,35.52
2018-12-15T02:02:43.307Z,45.38
2018-12-15T02:03:48.764Z,34.92
2018-12-15T02:04:54.181Z,36.77
2018-12-15T02:05:59.615Z,40.48
2018-12-15T02:07:10.730Z,33.78
2018-12-15T02:08:19.214Z,36.30
2018-12-15T02:09:26.837Z,42.80
2018-12-15T02:10:33.972Z,39.85
2018-12-15T02:11:44.026Z,34.80
2018-12-15T02:12:50.858Z,42.93
2018-12-15T02:13:57.772Z,40.90
2018-12-15T02:15:08.042Z,36.85
2018-12-15T02:16:15.408Z,31.10
2018-12-15T02:17:23.392Z,38.23
2018-12-15T02:18:32.633Z,37.13
2018-12-15T02:19:42.974Z,35.20
2018-12-15T02:20:51.815Z,35.38
2018-12-15T02:22:02.043Z,35.13
2018-12-15T02:23:10.080Z,37.13
2018-12-15T02:24:20.550Z,31.50
2018-12-15T02:25:32.090Z,37.48
2018-12-15T02:26:40.975Z,37.85
2018-12-15T02:27:48.093Z,39.40
2018-12-15T02:28:54.599Z,36.42
2018-12-15T02:30:01.046Z,31.00
2018-12-15T02:31:08.443Z,40.80
2018-12-15T02:32:17.194Z,40.12
2018-12-15T02:33:22.806Z,34.73
2018-12-15T02:34:28.283Z,40.33
2018-12-15T02:35:33.708Z,39.85
2018-12-15T02:36:39.390Z,37.28
2018-12-15T02:37:44.859Z,41.25
2018-12-15T02:38:50.251Z,35.85
2018-12-15T02:39:55.647Z,29.60
2018-12-15T02:41:01.068Z,35.20
2018-12-15T02:42:06.575Z,33.75
2018-12-15T02:43:12.031Z,36.90
2018-12-15T02:44:17.457Z,38.93
2018-12-15T02:45:22.828Z,35.83
2018-12-15T02:46:28.280Z,33.38
2018-12-15T02:47:41.224Z,35.03
2018-12-15T02:48:41.201Z,40.20
2018-12-15T02:49:46.634Z,41.53
2018-12-15T02:50:52.063Z,37.45
2018-12-15T02:51:57.537Z,35.58
2018-12-15T02:53:02.993Z,32.78
2018-12-15T02:54:08.440Z,35.03
2018-12-15T02:55:13.880Z,37.28
2018-12-15T02:56:19.300Z,36.53
2018-12-15T02:57:24.719Z,37.85
2018-12-15T02:58:30.167Z,31.20
2018-12-15T02:59:35.577Z,38.67
2018-12-15T03:00:40.991Z,35.65
2018-12-15T03:01:46.589Z,37.28
2018-12-15T03:04:10.579Z,36.65
2018-12-15T03:05:15.963Z,33.55
2018-12-15T03:06:21.387Z,31.35
2018-12-15T03:07:26.909Z,37.08
2018-12-15T03:08:32.338Z,34.00
2018-12-15T03:09:37.848Z,36.85
2018-12-15T03:10:43.236Z,37.00
2018-12-15T03:11:48.635Z,42.23
2018-12-15T03:12:54.031Z,39.80
2018-12-15T03:13:59.587Z,35.10
2018-12-15T03:15:06.090Z,31.27
2018-12-15T03:16:11.512Z,39.35
2018-12-15T03:17:16.983Z,39.70
2018-12-15T03:18:22.351Z,34.38
2018-12-15T03:19:27.812Z,33.08
2018-12-15T03:20:33.256Z,34.98
2018-12-15T03:21:38.812Z,34.70
2018-12-15T03:22:44.223Z,37.30
2018-12-15T03:23:49.616Z,39.38
2018-12-15T03:24:55.070Z,36.55
2018-12-15T03:26:00.463Z,36.23
2018-12-15T03:27:06.023Z,37.65
2018-12-15T03:28:11.449Z,35.38
2018-12-15T03:29:16.878Z,37.42
2018-12-15T03:30:22.343Z,33.10
2018-12-15T03:31:27.728Z,37.80
2018-12-15T03:32:33.150Z,32.48
2018-12-15T03:33:38.555Z,36.33
2018-12-15T03:34:43.973Z,36.28
2018-12-15T03:35:49.444Z,37.67
2018-12-15T03:36:54.852Z,38.25
2018-12-15T03:38:02.264Z,40.25
2018-12-15T03:39:07.832Z,33.45
2018-12-15T03:40:13.253Z,33.73
2018-12-15T03:41:18.747Z,36.00
2018-12-15T03:42:24.235Z,36.05
2018-12-15T03:43:29.638Z,37.83
2018-12-15T03:44:35.074Z,41.02
2018-12-15T03:45:40.536Z,39.53
2018-12-15T03:46:46.019Z,40.38
2018-12-15T03:47:56.128Z,37.67
2018-12-15T03:48:58.802Z,40.63
2018-12-15T03:50:04.591Z,35.92
2018-12-15T03:51:10.018Z,36.15
2018-12-15T03:52:15.536Z,32.95
2018-12-15T03:53:20.941Z,38.92
2018-12-15T03:54:26.334Z,40.48
2018-12-15T03:55:31.726Z,40.20
2018-12-15T03:56:37.124Z,40.30
2018-12-15T03:57:42.572Z,39.03
2018-12-15T03:58:47.967Z,36.60
2018-12-15T03:59:53.541Z,42.80
2018-12-15T04:00:58.987Z,42.27
2018-12-15T04:02:04.395Z,41.02
2018-12-15T04:03:09.989Z,36.75
2018-12-15T04:04:15.422Z,37.30
2018-12-15T04:05:20.834Z,37.73
2018-12-15T04:06:26.283Z,31.23
2018-12-15T04:07:31.671Z,41.68
2018-12-15T04:08:37.115Z,42.80
2018-12-15T04:09:42.541Z,43.23
2018-12-15T04:10:48.077Z,40.88
2018-12-15T04:11:53.537Z,37.03
2018-12-15T04:12:59.077Z,36.70
2018-12-15T04:14:04.665Z,40.95
2018-12-15T04:15:10.123Z,41.92
2018-12-15T04:16:15.531Z,45.90
2018-12-15T04:17:20.938Z,36.90
2018-12-15T04:18:26.469Z,42.25
2018-12-15T04:19:31.872Z,37.65
2018-12-15T04:20:37.271Z,46.02
2018-12-15T04:21:42.724Z,42.15
2018-12-15T04:22:48.116Z,35.52
2018-12-15T04:23:53.652Z,37.45
2018-12-15T04:24:59.226Z,41.40
2018-12-15T04:26:04.764Z,41.50
2018-12-15T04:27:10.159Z,38.70
2018-12-15T04:28:15.599Z,39.48
2018-12-15T04:29:21.281Z,38.50
2018-12-15T04:30:26.791Z,43.38
2018-12-15T04:31:32.184Z,35.83
2018-12-15T04:32:44.941Z,43.52
2018-12-15T04:33:45.151Z,37.88
2018-12-15T04:34:50.550Z,43.60
2018-12-15T04:35:55.972Z,35.75
2018-12-15T04:37:01.366Z,45.15
2018-12-15T04:38:06.764Z,38.30
2018-12-15T04:39:12.168Z,39.23
2018-12-15T04:40:17.924Z,43.00
2018-12-15T04:41:23.286Z,45.25
2018-12-15T04:42:28.750Z,41.80
2018-12-15T04:43:34.214Z,37.42
2018-12-15T04:44:39.709Z,39.05
2018-12-15T04:45:45.153Z,40.90
2018-12-15T04:46:50.594Z,42.10
2018-12-15T04:47:55.963Z,35.63
2018-12-15T04:49:01.361Z,40.90
2018-12-15T04:50:07.182Z,41.83
2018-12-15T04:51:12.690Z,37.13
2018-12-15T04:52:18.239Z,40.00
2018-12-15T04:53:23.658Z,44.88
2018-12-15T04:54:29.042Z,41.80
2018-12-15T04:55:34.410Z,41.08
2018-12-15T04:56:39.856Z,41.98
2018-12-15T04:57:45.300Z,41.40
2018-12-15T04:58:50.723Z,41.13
2018-12-15T04:59:56.180Z,41.30
2018-12-15T05:01:01.650Z,43.48
2018-12-15T05:02:07.126Z,44.65
2018-12-15T05:03:12.797Z,34.43
2018-12-15T05:04:18.250Z,38.42
2018-12-15T05:05:23.754Z,41.10
2018-12-15T05:06:29.296Z,39.60
2018-12-15T05:07:34.729Z,41.70
2018-12-15T05:08:40.120Z,38.28
2018-12-15T05:09:45.540Z,38.95
2018-12-15T05:10:50.957Z,39.63
2018-12-15T05:11:56.380Z,41.48
2018-12-15T05:13:01.784Z,37.10
2018-12-15T05:14:07.181Z,37.58
2018-12-15T05:15:12.651Z,39.67
2018-12-15T05:16:18.105Z,38.78
2018-12-15T05:17:23.539Z,39.92
2018-12-15T05:18:29.078Z,41.10
2018-12-15T05:19:34.519Z,44.55
2018-12-15T05:20:39.975Z,38.80
2018-12-15T05:21:45.378Z,40.33
2018-12-15T05:22:50.815Z,39.92
2018-12-15T05:23:56.284Z,34.65
2018-12-15T05:25:01.798Z,44.08
2018-12-15T05:26:07.280Z,46.05
2018-12-15T05:28:35.956Z,41.73
2018-12-15T05:29:41.399Z,38.98
2018-12-15T05:30:46.844Z,44.25
2018-12-15T05:31:52.327Z,45.43
2018-12-15T05:32:57.744Z,49.55
2018-12-15T05:34:03.206Z,40.75
2018-12-15T05:35:08.624Z,38.95
2018-12-15T05:36:14.075Z,47.23
2018-12-15T05:37:19.483Z,37.63
2018-12-15T05:38:24.846Z,43.03
2018-12-15T05:39:30.238Z,40.78
2018-12-15T05:40:35.789Z,38.02
2018-12-15T05:41:41.277Z,38.17
2018-12-15T05:42:46.658Z,37.38
2018-12-15T05:43:52.159Z,47.00
2018-12-15T05:44:57.568Z,49.38
2018-12-15T05:46:02.952Z,37.78
2018-12-15T05:47:09.224Z,42.83
2018-12-15T05:48:14.643Z,40.08
2018-12-15T05:49:20.081Z,34.43
2018-12-15T05:50:25.529Z,36.77
2018-12-15T05:51:30.936Z,43.15
2018-12-15T05:52:36.342Z,38.00
2018-12-15T05:53:41.812Z,40.55
2018-12-15T05:54:47.276Z,40.90
2018-12-15T05:55:52.724Z,40.08
2018-12-15T05:56:58.194Z,47.45
2018-12-15T05:58:03.572Z,43.60
2018-12-15T05:59:09.015Z,40.83
2018-12-15T06:00:14.981Z,44.93
2018-12-15T06:01:20.380Z,37.23
2018-12-15T06:02:26.117Z,44.65
2018-12-15T06:03:31.582Z,45.23
2018-12-15T06:04:36.977Z,38.10
2018-12-15T06:05:42.902Z,40.08
2018-12-15T06:06:48.271Z,39.38
2018-12-15T06:07:53.804Z,40.58
2018-12-15T06:08:59.243Z,40.25
2018-12-15T06:10:04.845Z,42.55
2018-12-15T06:11:10.300Z,41.18
2018-12-15T06:12:15.736Z,43.10
2018-12-15T06:13:21.119Z,41.90
2018-12-15T06:14:26.596Z,41.15
2018-12-15T06:15:32.128Z,41.92
2018-12-15T06:16:37.639Z,41.10
2018-12-15T06:17:43.093Z,38.63
2018-12-15T06:18:48.506Z,41.13
2018-12-15T06:19:53.940Z,37.13
2018-12-15T06:20:59.545Z,38.48
2018-12-15T06:23:27.207Z,42.20
2018-12-15T06:24:32.622Z,39.42
2018-12-15T06:25:38.046Z,44.25
2018-12-15T06:26:43.508Z,47.50
2018-12-15T06:27:48.943Z,42.33
2018-12-15T06:28:54.403Z,41.75
2018-12-15T06:29:59.858Z,43.13
2018-12-15T06:31:05.398Z,39.80
2018-12-15T06:32:10.826Z,41.37
2018-12-15T06:33:16.283Z,35.00
2018-12-15T06:34:22.199Z,39.58
2018-12-15T06:35:27.635Z,49.48
2018-12-15T06:36:33.043Z,44.48
2018-12-15T06:37:38.532Z,48.75
2018-12-15T06:38:43.953Z,42.27
2018-12-15T06:39:49.371Z,41.45
2018-12-15T06:40:54.832Z,44.97
2018-12-15T06:42:00.247Z,47.17
2018-12-15T06:43:05.775Z,40.40
2018-12-15T06:44:11.199Z,44.65
2018-12-15T06:45:16.618Z,39.10
2018-12-15T06:46:22.080Z,44.85
2018-12-15T06:47:27.464Z,43.33
2018-12-15T06:48:38.083Z,41.77
2018-12-15T06:49:40.423Z,43.60
2018-12-15T06:50:45.936Z,39.98
2018-12-15T06:51:51.423Z,40.08
2018-12-15T06:52:56.864Z,45.38
2018-12-15T06:54:02.251Z,40.58
2018-12-15T06:55:07.771Z,39.23
2018-12-15T06:56:13.212Z,44.90
2018-12-15T06:57:18.776Z,41.00
2018-12-15T06:58:24.233Z,41.35
2018-12-15T06:59:29.625Z,46.23
2018-12-15T07:00:35.089Z,42.50
2018-12-15T07:01:40.507Z,44.53
2018-12-15T07:02:45.981Z,46.68
2018-12-15T07:03:51.722Z,43.55
2018-12-15T07:04:57.192Z,42.88
2018-12-15T07:06:02.599Z,45.27
2018-12-15T07:07:08.032Z,45.85
2018-12-15T07:08:13.446Z,44.73
2018-12-15T07:09:19.046Z,35.95
2018-12-15T07:10:24.471Z,47.10
2018-12-15T07:11:29.878Z,43.20
2018-12-15T07:12:35.345Z,40.23
2018-12-15T07:13:40.813Z,45.03
2018-12-15T07:14:46.287Z,39.23
2018-12-15T07:15:51.719Z,51.13
2018-12-15T07:16:57.455Z,56.02
2018-12-15T07:18:02.918Z,58.13
2018-12-15T07:19:08.432Z,65.80
2018-12-15T07:20:14.035Z,46.70
2018-12-15T07:21:19.520Z,48.42
2018-12-15T07:22:24.988Z,42.33
2018-12-15T07:23:30.430Z,43.58
2018-12-15T07:24:36.074Z,51.75
2018-12-15T07:25:41.780Z,41.30
2018-12-15T07:26:47.483Z,39.55
2018-12-15T07:27:52.898Z,38.25
2018-12-15T07:28:58.391Z,46.48
2018-12-15T07:30:04.253Z,44.80
2018-12-15T07:31:09.691Z,45.67
2018-12-15T07:32:15.071Z,48.68
2018-12-15T07:33:20.498Z,43.87
2018-12-15T07:34:25.929Z,40.65
2018-12-15T07:35:31.324Z,44.48
2018-12-15T07:36:36.767Z,42.30
2018-12-15T07:37:42.174Z,42.75
2018-12-15T07:38:47.605Z,41.70
2018-12-15T07:39:53.048Z,45.23
2018-12-15T07:40:58.431Z,43.70
2018-12-15T07:42:03.907Z,48.87
2018-12-15T07:43:09.297Z,41.15
2018-12-15T07:44:14.828Z,50.33
2018-12-15T07:45:20.267Z,44.10
2018-12-15T07:46:25.771Z,40.03
2018-12-15T07:47:31.205Z,45.35
2018-12-15T07:48:36.744Z,44.83
2018-12-15T07:49:42.167Z,39.65
2018-12-15T07:50:47.626Z,46.00
2018-12-15T07:51:53.195Z,43.60
2018-12-15T07:52:58.587Z,47.55
2018-12-15T07:54:04.516Z,42.80
2018-12-15T07:55:09.980Z,39.80
2018-12-15T07:56:15.379Z,45.30
2018-12-15T07:57:34.499Z,41.85
2018-12-15T07:58:48.514Z,45.20
2018-12-15T07:59:54.453Z,37.93
2018-12-15T08:00:59.965Z,43.83
2018-12-15T08:02:05.679Z,46.50
2018-12-15T08:03:13.476Z,46.18
2018-12-15T08:04:19.031Z,47.33
2018-12-15T08:05:24.435Z,47.40
2018-12-15T08:06:29.848Z,47.45
2018-12-15T08:07:35.459Z,44.50
2018-12-15T08:08:40.919Z,48.00
2018-12-15T08:09:48.080Z,43.58
2018-12-15T08:10:58.755Z,45.75
2018-12-15T08:12:09.873Z,43.73
2018-12-15T08:13:20.414Z,40.55
2018-12-15T08:14:26.228Z,44.10
2018-12-15T08:15:32.431Z,44.53
2018-12-15T08:16:37.939Z,58.92
2018-12-15T08:17:43.461Z,46.60
2018-12-15T08:18:49.350Z,43.98
2018-12-15T08:19:54.875Z,45.40
2018-12-15T08:21:00.766Z,48.75
2018-12-15T08:22:06.264Z,44.70
2018-12-15T08:23:11.755Z,46.40
2018-12-15T08:24:17.229Z,47.25
2018-12-15T08:25:22.653Z,42.65
2018-12-15T08:26:28.196Z,44.48
2018-12-15T08:27:33.575Z,39.58
2018-12-15T08:28:39.179Z,48.28
2018-12-15T08:29:44.706Z,50.60
2018-12-15T08:30:50.171Z,46.58
2018-12-15T08:31:55.612Z,47.25
2018-12-15T08:33:01.229Z,41.63
2018-12-15T08:34:06.975Z,45.70
2018-12-15T08:35:12.504Z,41.83
2018-12-15T08:36:18.206Z,44.35
2018-12-15T08:37:23.620Z,45.30
2018-12-15T08:38:29.091Z,45.67
2018-12-15T08:39:34.516Z,45.92
2018-12-15T08:40:39.939Z,42.17
2018-12-15T08:41:45.326Z,46.58
2018-12-15T08:42:50.749Z,35.15
2018-12-15T08:43:56.182Z,44.60
2018-12-15T08:45:01.668Z,45.33
2018-12-15T08:47:37.131Z,44.40
2018-12-15T08:48:42.554Z,41.55
2018-12-15T08:49:48.059Z,41.37
2018-12-15T08:50:53.687Z,45.35
2018-12-15T08:51:59.175Z,46.25
2018-12-15T08:53:04.657Z,43.13
2018-12-15T08:54:10.080Z,44.65
2018-12-15T08:55:15.572Z,42.30
2018-12-15T08:56:20.966Z,45.60
2018-12-15T08:57:26.470Z,46.60
2018-12-15T08:58:31.945Z,46.83
2018-12-15T08:59:37.344Z,45.90
2018-12-15T09:00:43.132Z,46.02
2018-12-15T09:01:48.641Z,36.17
2018-12-15T09:02:54.157Z,44.53
2018-12-15T09:03:59.652Z,45.17
2018-12-15T09:05:05.727Z,40.83
2018-12-15T09:06:11.222Z,41.05
2018-12-15T09:07:16.703Z,40.63
2018-12-15T09:08:22.152Z,42.78
2018-12-15T09:09:27.555Z,41.28
2018-12-15T09:10:33.079Z,44.63
2018-12-15T09:11:38.566Z,40.25
2018-12-15T09:12:44.068Z,49.30
2018-12-15T09:13:51.355Z,38.15
2018-12-15T09:14:56.839Z,40.23
2018-12-15T09:16:02.380Z,43.80
2018-12-15T09:17:08.015Z,38.35
2018-12-15T09:18:13.627Z,50.45
2018-12-15T09:19:19.106Z,40.55
2018-12-15T09:20:24.582Z,44.55
2018-12-15T09:21:30.064Z,43.00
2018-12-15T09:22:35.487Z,44.05
2018-12-15T09:23:40.993Z,45.12
2018-12-15T09:24:46.525Z,55.12
2018-12-15T09:25:51.925Z,44.05
2018-12-15T09:26:57.548Z,48.15
2018-12-15T09:28:03.006Z,45.90
2018-12-15T09:29:08.466Z,41.02
2018-12-15T09:30:13.894Z,43.92
2018-12-15T09:31:19.481Z,46.58
2018-12-15T09:32:24.923Z,45.95
2018-12-15T09:33:30.497Z,42.30
2018-12-15T09:34:35.876Z,46.45
2018-12-15T09:35:41.327Z,44.30
2018-12-15T09:36:46.805Z,49.10
2018-12-15T09:37:52.179Z,41.48
2018-12-15T09:38:57.626Z,46.48
2018-12-15T09:40:03.070Z,45.40
2018-12-15T09:41:08.938Z,42.25
2018-12-15T09:42:14.958Z,45.50
2018-12-15T09:43:20.518Z,39.90
2018-12-15T09:44:26.039Z,42.88
2018-12-15T09:45:31.447Z,47.93
2018-12-15T09:46:36.904Z,49.35
2018-12-15T09:47:42.886Z,53.02
2018-12-15T09:48:49.010Z,48.17
2018-12-15T09:49:54.437Z,50.05
2018-12-15T09:51:00.015Z,42.60
2018-12-15T09:52:05.567Z,45.12
2018-12-15T09:53:15.078Z,42.70
2018-12-15T09:54:20.564Z,46.98
2018-12-15T09:55:26.028Z,40.20
2018-12-15T09:56:31.698Z,42.05
2018-12-15T09:57:37.090Z,37.50
2018-12-15T09:58:43.014Z,39.58
2018-12-15T09:59:48.655Z,44.40
2018-12-15T10:00:54.116Z,45.85
2018-12-15T10:01:59.507Z,42.80
2018-12-15T10:03:05.459Z,55.95
2018-12-15T10:04:11.084Z,62.60
2018-12-15T10:05:16.507Z,40.95
2018-12-15T10:06:22.073Z,38.90
2018-12-15T10:07:27.630Z,50.67
2018-12-15T10:08:33.029Z,54.50
2018-12-15T10:09:38.501Z,42.93
2018-12-15T10:10:43.969Z,45.00
2018-12-15T10:11:49.477Z,49.40
2018-12-15T10:12:55.075Z,48.15
2018-12-15T10:14:00.447Z,43.85
2018-12-15T10:15:06.709Z,51.40
2018-12-15T10:16:12.167Z,45.55
2018-12-15T10:17:17.574Z,42.60
2018-12-15T10:18:23.083Z,42.75
2018-12-15T10:19:28.442Z,43.63
2018-12-15T10:20:33.847Z,44.57
2018-12-15T10:21:39.333Z,47.88
2018-12-15T10:22:44.843Z,42.10
2018-12-15T10:23:50.481Z,43.35
2018-12-15T10:24:55.883Z,46.08
2018-12-15T10:26:01.302Z,45.12
2018-12-15T10:27:06.670Z,44.58
2018-12-15T10:28:12.126Z,49.83
2018-12-15T10:29:22.651Z,50.88
2018-12-15T10:30:33.258Z,46.35
2018-12-15T10:32:41.921Z,46.25
2018-12-15T10:33:47.407Z,54.65
2018-12-15T10:34:52.769Z,47.08
2018-12-15T10:35:58.311Z,39.38
2018-12-15T10:37:04.466Z,43.45
2018-12-15T10:38:10.111Z,47.43
2018-12-15T10:39:16.051Z,45.45
2018-12-15T10:40:21.496Z,41.02
2018-12-15T10:41:27.016Z,43.75
2018-12-15T10:42:32.506Z,48.52
2018-12-15T10:43:38.112Z,39.42
2018-12-15T10:44:43.546Z,40.85
2018-12-15T10:45:48.932Z,39.47
2018-12-15T10:46:55.246Z,39.40
2018-12-15T10:48:00.599Z,39.57
2018-12-15T10:49:06.004Z,42.47
2018-12-15T10:50:12.632Z,38.47
2018-12-15T10:51:18.096Z,40.67
2018-12-15T10:52:23.475Z,40.10
2018-12-15T10:53:28.938Z,44.20
2018-12-15T10:54:34.350Z,42.87
2018-12-15T10:55:39.841Z,38.65
2018-12-15T10:56:45.398Z,46.97
2018-12-15T10:57:50.808Z,40.92
2018-12-15T10:58:56.307Z,43.23
2018-12-15T11:00:01.745Z,34.60
2018-12-15T11:01:12.296Z,38.28
2018-12-15T11:02:17.817Z,41.23
2018-12-15T11:03:23.260Z,40.12
2018-12-15T11:04:28.719Z,42.73
2018-12-15T11:05:34.247Z,44.38
2018-12-15T11:06:39.680Z,43.87
2018-12-15T11:07:45.183Z,43.80
2018-12-15T11:08:50.574Z,38.90
2018-12-15T11:09:56.038Z,46.58
2018-12-15T11:11:01.464Z,37.63
2018-12-15T11:12:07.088Z,42.77
2018-12-15T11:13:12.498Z,44.47
2018-12-15T11:14:17.884Z,40.65
2018-12-15T11:15:23.410Z,38.40
2018-12-15T11:16:28.879Z,38.50
2018-12-15T11:17:34.250Z,37.17
2018-12-15T11:18:39.703Z,50.33
2018-12-15T11:19:47.146Z,39.38
2018-12-15T11:20:52.759Z,39.33
2018-12-15T11:21:58.493Z,40.78
2018-12-15T11:23:03.878Z,34.80
2018-12-15T11:24:09.262Z,39.80
2018-12-15T11:25:14.856Z,40.60
2018-12-15T11:26:21.175Z,34.85
2018-12-15T11:27:26.665Z,41.30
2018-12-15T11:28:32.195Z,36.23
2018-12-15T11:29:37.670Z,31.93
2018-12-15T11:30:43.026Z,41.50
2018-12-15T11:31:48.454Z,33.63
2018-12-15T11:32:53.852Z,39.80
2018-12-15T11:33:59.248Z,31.70
2018-12-15T11:35:05.260Z,34.80
2018-12-15T11:36:10.672Z,35.85
2018-12-15T11:37:16.184Z,32.50
2018-12-15T11:38:21.587Z,38.10
2018-12-15T11:39:27.509Z,36.85
2018-12-15T11:40:32.960Z,31.82
2018-12-15T11:41:38.368Z,32.95
2018-12-15T11:42:43.969Z,38.75
2018-12-15T11:43:50.606Z,26.27
2018-12-15T11:44:56.027Z,38.73
2018-12-15T11:46:01.401Z,35.28
2018-12-15T11:47:06.897Z,34.85
2018-12-15T11:48:13.358Z,35.33
2018-12-15T11:49:19.115Z,32.38
2018-12-15T11:50:24.490Z,36.60
2018-12-15T11:51:29.882Z,34.85
2018-12-15T11:52:35.311Z,35.45
2018-12-15T11:53:40.700Z,32.42
2018-12-15T11:54:46.204Z,35.73
2018-12-15T11:55:51.651Z,40.65
2018-12-15T11:56:57.080Z,34.80
2018-12-15T11:58:02.483Z,31.00
2018-12-15T11:59:07.916Z,32.80
2018-12-15T12:00:13.701Z,32.25
2018-12-15T12:01:19.223Z,32.15
2018-12-15T12:02:24.608Z,34.50
2018-12-15T12:03:30.064Z,30.88
2018-12-15T12:04:35.514Z,29.10
2018-12-15T12:05:41.037Z,33.87
2018-12-15T12:06:46.538Z,35.83
2018-12-15T12:07:51.943Z,31.23
2018-12-15T12:08:57.400Z,33.02
2018-12-15T12:10:02.816Z,30.52
2018-12-15T12:11:08.454Z,33.15
2018-12-15T12:12:15.398Z,32.00
2018-12-15T12:13:20.918Z,34.67
2018-12-15T12:14:26.478Z,30.02
2018-12-15T12:15:31.983Z,33.42
2018-12-15T12:16:37.589Z,30.43
2018-12-15T12:17:43.147Z,33.48
2018-12-15T12:18:48.527Z,26.93
2018-12-15T12:19:54.101Z,33.30
2018-12-15T12:20:59.504Z,29.18
2018-12-15T12:22:04.998Z,28.10
2018-12-15T12:23:10.596Z,29.02
2018-12-15T12:24:16.002Z,31.50
2018-12-15T12:25:21.474Z,29.55
2018-12-15T12:26:26.927Z,33.87
2018-12-15T12:27:32.331Z,35.20
2018-12-15T12:28:37.807Z,32.40
2018-12-15T12:29:43.280Z,33.75
2018-12-15T12:30:48.849Z,31.77
2018-12-15T12:31:54.250Z,32.67
2018-12-15T12:32:59.668Z,31.75
2018-12-15T12:34:05.163Z,34.78
2018-12-15T12:35:10.559Z,35.27
2018-12-15T12:36:15.995Z,28.40
2018-12-15T12:37:21.382Z,39.18
2018-12-15T12:38:26.846Z,33.48
2018-12-15T12:39:32.339Z,33.18
2018-12-15T12:40:38.059Z,30.65
2018-12-15T12:41:43.475Z,30.68
2018-12-15T12:42:48.875Z,30.23
2018-12-15T12:43:54.242Z,28.05
2018-12-15T12:44:59.667Z,31.37
2018-12-15T12:46:05.131Z,31.82
2018-12-15T12:47:10.548Z,37.70
2018-12-15T12:48:15.971Z,27.10
2018-12-15T12:49:21.410Z,34.88
2018-12-15T12:50:26.890Z,31.57
2018-12-15T12:51:32.393Z,35.33
2018-12-15T12:52:37.892Z,32.33
2018-12-15T12:53:43.474Z,31.00
2018-12-15T12:54:48.919Z,34.63
2018-12-15T12:55:54.408Z,30.47
2018-12-15T12:56:59.856Z,34.90
2018-12-15T12:58:05.312Z,32.17
2018-12-15T12:59:10.745Z,28.75
2018-12-15T13:00:16.196Z,31.12
2018-12-15T13:01:21.630Z,29.57
2018-12-15T13:02:27.127Z,45.80
2018-12-15T13:03:32.556Z,43.63
2018-12-15T13:04:37.959Z,34.98
2018-12-15T13:05:43.347Z,34.03
2018-12-15T13:06:48.759Z,31.20
2018-12-15T13:07:54.326Z,29.65
2018-12-15T13:08:59.692Z,30.32
2018-12-15T13:10:05.889Z,30.60
2018-12-15T13:11:11.344Z,31.45
2018-12-15T13:12:16.782Z,32.13
2018-12-15T13:13:22.388Z,33.90
2018-12-15T13:14:27.844Z,31.70
2018-12-15T13:15:33.302Z,42.62
2018-12-15T13:16:38.750Z,28.70
2018-12-15T13:17:44.176Z,31.82
2018-12-15T13:18:49.574Z,39.03
2018-12-15T13:19:54.962Z,32.05
2018-12-15T13:21:00.434Z,25.50
2018-12-15T13:22:05.866Z,31.70
2018-12-15T13:23:11.271Z,29.02
2018-12-15T13:24:16.753Z,33.63
2018-12-15T13:25:22.193Z,32.87
2018-12-15T13:26:27.752Z,25.75
2018-12-15T13:27:33.244Z,28.50
2018-12-15T13:28:39.349Z,26.15
2018-12-15T13:29:44.926Z,30.68
2018-12-15T13:30:50.344Z,30.80
2018-12-15T13:31:56.575Z,33.48
2018-12-15T13:33:02.099Z,31.00
2018-12-15T13:34:07.553Z,31.48
2018-12-15T13:35:13.131Z,32.17
2018-12-15T13:36:20.267Z,33.48
2018-12-15T13:37:25.832Z,30.77
2018-12-15T13:38:31.326Z,32.45
2018-12-15T13:39:36.750Z,27.93
2018-12-15T13:40:42.268Z,35.23
2018-12-15T13:41:47.760Z,30.00
2018-12-15T13:42:53.195Z,27.73
2018-12-15T13:43:58.722Z,32.73
2018-12-15T13:45:04.641Z,32.00
2018-12-15T13:46:10.169Z,25.05
2018-12-15T13:47:15.735Z,32.80
2018-12-15T13:48:21.292Z,29.20
2018-12-15T13:49:26.777Z,37.70
2018-12-15T13:50:32.376Z,27.35
2018-12-15T13:51:37.775Z,29.23
2018-12-15T13:52:43.335Z,33.38
2018-12-15T13:53:48.711Z,29.02
2018-12-15T13:54:55.364Z,32.13
2018-12-15T13:56:00.870Z,29.95
2018-12-15T13:57:06.318Z,30.27
2018-12-15T13:58:11.812Z,31.33
2018-12-15T13:59:17.331Z,32.17
2018-12-15T14:00:22.823Z,28.93
2018-12-15T14:01:28.238Z,29.52
2018-12-15T14:02:33.814Z,28.92
2018-12-15T14:03:39.272Z,33.02
2018-12-15T14:04:44.631Z,27.02
2018-12-15T14:05:50.072Z,29.87
2018-12-15T14:06:55.520Z,38.55
2018-12-15T14:08:01.010Z,33.50
2018-12-15T14:09:09.057Z,30.68
2018-12-15T14:10:14.625Z,30.68
2018-12-15T14:11:20.063Z,28.32
2018-12-15T14:12:25.459Z,32.63